Rain radar more information rain snow radar


Visit our other weather sites:

Template documentation
and downloads

And another site



Nearby METAR Reports

   
KTIW - Tacoma, Washington, USA
Distance from station: W 7 mi
Updated: Apr 18 2019 5:53 pm
Mostly Cloudy  
Mostly Cloudy  
   Wind: WSW 6.9 mph
Wind: WSW 6.9 mph
Temperature: 60.8°F
Dew Point: 51.8°F
Humidity: 72%
Barometer: 30.1 inHg
Clouds: Mostly Cloudy
Visibility: 10 mi
Cloud details: Few Clouds 1829 m,
Partly Cloudy 2591 m,
Mostly Cloudy 3353 m
KTIW 190053Z 25006KT 10SM FEW060 SCT085 BKN110 16/11 A3010 RMK AO2 SLP192 T01610111
KTCM - Tacoma/Mc Chord, Washington, USA
Distance from station: S 9 mi
Updated: Apr 18 2019 5:56 pm
Mostly Cloudy  
Mostly Cloudy  
   Wind: WNW 8.1 mph
Wind: WNW 8.1 mph
Temperature: 62.6°F
Dew Point: 57.2°F
Humidity: 83%
Barometer: 30.09 inHg
Clouds: Mostly Cloudy
Visibility: 10 mi
Cloud details: Few Clouds 3048 m,
Partly Cloudy 3962 m,
Mostly Cloudy 4572 m
KTCM 190056Z AUTO 29007KT 10SM FEW100 SCT130 BKN150 17/14 A3009 RMK AO2 SLP193 T01670136 RVRNO VISNO RWY34 CHINO RWY34 $
KSEA - Seattle/Metro, Washington, USA
Distance from station: NNE 15 mi
Updated: Apr 18 2019 5:53 pm
Mostly Cloudy  
Mostly Cloudy  
   Wind: SSW 8.1 mph
Wind: SSW 8.1 mph
Temperature: 60.8°F
Dew Point: 48.2°F
Humidity: 63%
Barometer: 30.09 inHg
Clouds: Mostly Cloudy
Visibility: 10 mi
Cloud details: Few Clouds 1433 m,
Mostly Cloudy 1981 m,
Mostly Cloudy 3048 m
KSEA 190053Z 21007KT 10SM FEW047 BKN065 BKN100 16/09 A3009 RMK AO2 SLP194 T01610089
KBFI - Seattle/Boeing, Washington, USA
Distance from station: NNE 21 mi
Updated: Apr 18 2019 5:53 pm
Mostly Cloudy  
Mostly Cloudy  
   Wind: South 6.9 mph
Wind: South 6.9 mph
Temperature: 62.6°F
Dew Point: 48.2°F
Humidity: 59%
Barometer: 30.08 inHg
Clouds: Mostly Cloudy
Visibility: 10 mi
Cloud details: Partly Cloudy 1463 m,
Mostly Cloudy 1829 m
KBFI 190053Z 19006KT 10SM SCT048 BKN060 17/09 A3008 RMK AO2 SLP186 T01670089
KOLM - Olympia, Washington, USA
Distance from station: SW 29 mi
Updated: Apr 18 2019 5:54 pm
Overcast  
Overcast  
   Wind: North 6.9 mph
Wind: North 6.9 mph
Temperature: 64.4°F
Dew Point: 53.6°F
Humidity: 68%
Barometer: 30.09 inHg
Clouds: Overcast
Visibility: 10 mi
Cloud details: Mostly Cloudy 1829 m,
Mostly Cloudy 2438 m,
Overcast 2896 m
KOLM 190054Z 01006KT 10SM BKN060 BKN080 OVC095 18/12 A3009 RMK AO2 SLP190 T01780117
 

Script developed by  Saratoga-weather.org Adapted for the template by  Weerstation Leuven

You find our weather info also at:

Weather Underground

WeatherlinkIP

Citizen Weather Observer Program (CWOP)

Equipment we use:

Weather-station
Davis VP2

Weather-program
Meteobridge

Provider
MDD Hosting

Davis VP2

Meteobridge

MDD Hosting